sensor_id;sensor_type;location;lat;lon;timestamp;P1;durP1;ratioP1;P2;durP2;ratioP2
9657;SDS011;4867;48.112;11.622;2023-05-07T00:00:50;7.93;;;7.20;;
9657;SDS011;4867;48.112;11.622;2023-05-07T00:03:17;8.87;;;7.97;;
9657;SDS011;4867;48.112;11.622;2023-05-07T00:05:45;8.57;;;7.83;;
9657;SDS011;4867;48.112;11.622;2023-05-07T00:08:13;8.73;;;7.93;;
9657;SDS011;4867;48.112;11.622;2023-05-07T00:10:40;9.07;;;8.20;;
9657;SDS011;4867;48.112;11.622;2023-05-07T00:13:07;9.33;;;8.40;;
9657;SDS011;4867;48.112;11.622;2023-05-07T00:15:35;9.63;;;8.10;;
9657;SDS011;4867;48.112;11.622;2023-05-07T00:18:02;8.50;;;7.70;;
9657;SDS011;4867;48.112;11.622;2023-05-07T00:20:29;8.90;;;8.10;;
9657;SDS011;4867;48.112;11.622;2023-05-07T00:22:57;8.87;;;8.07;;
9657;SDS011;4867;48.112;11.622;2023-05-07T00:25:24;8.93;;;8.03;;
9657;SDS011;4867;48.112;11.622;2023-05-07T00:27:51;8.80;;;7.97;;
9657;SDS011;4867;48.112;11.622;2023-05-07T00:30:18;9.40;;;8.50;;
9657;SDS011;4867;48.112;11.622;2023-05-07T00:32:46;8.83;;;8.00;;
9657;SDS011;4867;48.112;11.622;2023-05-07T00:35:15;8.07;;;7.37;;
9657;SDS011;4867;48.112;11.622;2023-05-07T00:37:42;8.60;;;7.70;;
9657;SDS011;4867;48.112;11.622;2023-05-07T00:40:10;8.30;;;7.60;;
9657;SDS011;4867;48.112;11.622;2023-05-07T00:42:38;8.37;;;7.57;;
9657;SDS011;4867;48.112;11.622;2023-05-07T00:45:05;8.93;;;7.83;;
9657;SDS011;4867;48.112;11.622;2023-05-07T00:47:35;9.40;;;8.43;;
9657;SDS011;4867;48.112;11.622;2023-05-07T00:50:03;8.17;;;7.47;;
9657;SDS011;4867;48.112;11.622;2023-05-07T00:52:32;9.20;;;8.40;;
9657;SDS011;4867;48.112;11.622;2023-05-07T00:55:04;8.30;;;7.60;;
9657;SDS011;4867;48.112;11.622;2023-05-07T00:57:39;8.33;;;7.60;;
9657;SDS011;4867;48.112;11.622;2023-05-07T01:00:08;8.90;;;8.10;;
9657;SDS011;4867;48.112;11.622;2023-05-07T01:02:36;8.93;;;8.03;;
9657;SDS011;4867;48.112;11.622;2023-05-07T01:05:05;9.53;;;8.67;;
9657;SDS011;4867;48.112;11.622;2023-05-07T01:07:35;11.50;;;9.20;;
9657;SDS011;4867;48.112;11.622;2023-05-07T01:10:04;9.77;;;8.87;;
9657;SDS011;4867;48.112;11.622;2023-05-07T01:12:33;10.13;;;9.13;;
9657;SDS011;4867;48.112;11.622;2023-05-07T01:15:02;9.93;;;8.93;;
9657;SDS011;4867;48.112;11.622;2023-05-07T01:17:38;10.00;;;9.00;;
9657;SDS011;4867;48.112;11.622;2023-05-07T01:20:12;10.43;;;9.17;;
9657;SDS011;4867;48.112;11.622;2023-05-07T01:22:41;9.30;;;8.37;;
9657;SDS011;4867;48.112;11.622;2023-05-07T01:25:11;9.17;;;8.37;;
9657;SDS011;4867;48.112;11.622;2023-05-07T01:27:43;9.37;;;8.57;;
9657;SDS011;4867;48.112;11.622;2023-05-07T01:30:10;8.93;;;7.93;;
9657;SDS011;4867;48.112;11.622;2023-05-07T01:35:18;8.33;;;7.63;;
9657;SDS011;4867;48.112;11.622;2023-05-07T01:37:47;9.53;;;8.27;;
9657;SDS011;4867;48.112;11.622;2023-05-07T01:40:15;10.43;;;8.27;;
9657;SDS011;4867;48.112;11.622;2023-05-07T01:42:43;9.00;;;8.20;;
9657;SDS011;4867;48.112;11.622;2023-05-07T01:45:12;9.57;;;8.67;;
9657;SDS011;4867;48.112;11.622;2023-05-07T01:47:39;8.93;;;8.23;;
9657;SDS011;4867;48.112;11.622;2023-05-07T01:50:07;9.37;;;8.47;;
9657;SDS011;4867;48.112;11.622;2023-05-07T01:52:38;9.23;;;8.43;;
9657;SDS011;4867;48.112;11.622;2023-05-07T01:55:05;10.23;;;8.60;;
9657;SDS011;4867;48.112;11.622;2023-05-07T01:57:33;10.03;;;9.13;;
9657;SDS011;4867;48.112;11.622;2023-05-07T02:00:01;11.23;;;10.03;;
9657;SDS011;4867;48.112;11.622;2023-05-07T02:02:41;9.93;;;9.13;;
9657;SDS011;4867;48.112;11.622;2023-05-07T02:05:19;10.40;;;9.50;;
9657;SDS011;4867;48.112;11.622;2023-05-07T02:07:54;9.57;;;8.70;;
9657;SDS011;4867;48.112;11.622;2023-05-07T02:10:22;9.10;;;8.23;;
9657;SDS011;4867;48.112;11.622;2023-05-07T02:12:49;10.23;;;8.53;;
9657;SDS011;4867;48.112;11.622;2023-05-07T02:15:16;9.80;;;8.80;;
9657;SDS011;4867;48.112;11.622;2023-05-07T02:18:00;9.17;;;8.33;;
9657;SDS011;4867;48.112;11.622;2023-05-07T02:20:30;9.00;;;8.20;;
9657;SDS011;4867;48.112;11.622;2023-05-07T02:22:57;9.40;;;8.50;;
9657;SDS011;4867;48.112;11.622;2023-05-07T02:25:26;8.93;;;8.07;;
9657;SDS011;4867;48.112;11.622;2023-05-07T02:27:54;9.97;;;9.03;;
9657;SDS011;4867;48.112;11.622;2023-05-07T02:30:27;9.10;;;8.20;;
9657;SDS011;4867;48.112;11.622;2023-05-07T02:32:56;9.53;;;8.63;;
9657;SDS011;4867;48.112;11.622;2023-05-07T02:35:24;8.80;;;8.07;;
9657;SDS011;4867;48.112;11.622;2023-05-07T02:37:53;8.33;;;7.53;;
9657;SDS011;4867;48.112;11.622;2023-05-07T02:40:21;8.77;;;7.97;;
9657;SDS011;4867;48.112;11.622;2023-05-07T02:42:48;8.07;;;7.30;;
9657;SDS011;4867;48.112;11.622;2023-05-07T02:45:16;9.57;;;8.77;;
9657;SDS011;4867;48.112;11.622;2023-05-07T02:47:45;9.03;;;8.23;;
9657;SDS011;4867;48.112;11.622;2023-05-07T02:50:13;8.70;;;8.00;;
9657;SDS011;4867;48.112;11.622;2023-05-07T02:52:41;8.43;;;7.73;;
9657;SDS011;4867;48.112;11.622;2023-05-07T02:55:08;8.90;;;8.20;;
9657;SDS011;4867;48.112;11.622;2023-05-07T02:57:36;8.37;;;7.67;;
9657;SDS011;4867;48.112;11.622;2023-05-07T03:00:14;8.83;;;7.93;;
9657;SDS011;4867;48.112;11.622;2023-05-07T03:02:50;8.17;;;7.47;;
9657;SDS011;4867;48.112;11.622;2023-05-07T03:05:18;8.67;;;7.80;;
9657;SDS011;4867;48.112;11.622;2023-05-07T03:07:45;7.70;;;7.00;;
9657;SDS011;4867;48.112;11.622;2023-05-07T03:10:14;8.90;;;8.00;;
9657;SDS011;4867;48.112;11.622;2023-05-07T03:12:42;10.00;;;8.23;;
9657;SDS011;4867;48.112;11.622;2023-05-07T03:15:14;7.63;;;7.00;;
9657;SDS011;4867;48.112;11.622;2023-05-07T03:17:41;8.70;;;7.43;;
9657;SDS011;4867;48.112;11.622;2023-05-07T03:20:09;8.43;;;7.63;;
9657;SDS011;4867;48.112;11.622;2023-05-07T03:22:38;10.73;;;8.10;;
9657;SDS011;4867;48.112;11.622;2023-05-07T03:25:06;7.43;;;6.83;;
9657;SDS011;4867;48.112;11.622;2023-05-07T03:27:34;7.70;;;7.07;;
9657;SDS011;4867;48.112;11.622;2023-05-07T03:30:01;8.43;;;7.40;;
9657;SDS011;4867;48.112;11.622;2023-05-07T03:32:29;8.00;;;7.00;;
9657;SDS011;4867;48.112;11.622;2023-05-07T03:34:56;7.07;;;6.47;;
9657;SDS011;4867;48.112;11.622;2023-05-07T03:37:23;7.77;;;7.00;;
9657;SDS011;4867;48.112;11.622;2023-05-07T03:39:51;8.37;;;7.60;;
9657;SDS011;4867;48.112;11.622;2023-05-07T03:42:18;7.10;;;6.20;;
9657;SDS011;4867;48.112;11.622;2023-05-07T03:44:49;7.87;;;7.17;;
9657;SDS011;4867;48.112;11.622;2023-05-07T03:47:17;7.00;;;6.40;;
9657;SDS011;4867;48.112;11.622;2023-05-07T03:49:46;7.47;;;6.90;;
9657;SDS011;4867;48.112;11.622;2023-05-07T03:52:14;7.23;;;6.57;;
9657;SDS011;4867;48.112;11.622;2023-05-07T03:54:42;7.93;;;7.13;;
9657;SDS011;4867;48.112;11.622;2023-05-07T03:57:11;6.90;;;6.30;;
9657;SDS011;4867;48.112;11.622;2023-05-07T03:59:39;7.50;;;6.70;;
9657;SDS011;4867;48.112;11.622;2023-05-07T04:02:07;7.93;;;6.90;;
9657;SDS011;4867;48.112;11.622;2023-05-07T04:04:35;8.13;;;7.10;;
9657;SDS011;4867;48.112;11.622;2023-05-07T04:07:03;7.33;;;5.90;;
9657;SDS011;4867;48.112;11.622;2023-05-07T04:09:36;7.80;;;6.97;;
9657;SDS011;4867;48.112;11.622;2023-05-07T04:12:03;6.70;;;6.17;;
9657;SDS011;4867;48.112;11.622;2023-05-07T04:14:31;9.43;;;7.10;;
9657;SDS011;4867;48.112;11.622;2023-05-07T04:17:00;7.23;;;6.50;;
9657;SDS011;4867;48.112;11.622;2023-05-07T04:19:28;8.27;;;6.27;;
9657;SDS011;4867;48.112;11.622;2023-05-07T04:21:55;8.00;;;6.50;;
9657;SDS011;4867;48.112;11.622;2023-05-07T04:24:22;6.67;;;6.00;;
9657;SDS011;4867;48.112;11.622;2023-05-07T04:26:50;7.30;;;6.60;;
9657;SDS011;4867;48.112;11.622;2023-05-07T04:29:20;7.27;;;6.53;;
9657;SDS011;4867;48.112;11.622;2023-05-07T04:31:47;7.17;;;6.37;;
9657;SDS011;4867;48.112;11.622;2023-05-07T04:34:14;7.13;;;6.20;;
9657;SDS011;4867;48.112;11.622;2023-05-07T04:36:42;6.90;;;6.20;;
9657;SDS011;4867;48.112;11.622;2023-05-07T04:39:13;6.90;;;6.27;;
9657;SDS011;4867;48.112;11.622;2023-05-07T04:41:43;7.13;;;6.00;;
9657;SDS011;4867;48.112;11.622;2023-05-07T04:44:10;7.03;;;6.37;;
9657;SDS011;4867;48.112;11.622;2023-05-07T04:46:39;7.53;;;6.23;;
9657;SDS011;4867;48.112;11.622;2023-05-07T04:49:06;5.40;;;4.90;;
9657;SDS011;4867;48.112;11.622;2023-05-07T04:51:33;5.70;;;5.20;;
9657;SDS011;4867;48.112;11.622;2023-05-07T04:54:01;6.30;;;5.70;;
9657;SDS011;4867;48.112;11.622;2023-05-07T04:56:30;6.53;;;5.93;;
9657;SDS011;4867;48.112;11.622;2023-05-07T04:58:59;6.13;;;5.63;;
9657;SDS011;4867;48.112;11.622;2023-05-07T05:01:27;7.37;;;6.30;;
9657;SDS011;4867;48.112;11.622;2023-05-07T05:03:54;6.37;;;5.80;;
9657;SDS011;4867;48.112;11.622;2023-05-07T05:06:22;7.63;;;5.77;;
9657;SDS011;4867;48.112;11.622;2023-05-07T05:08:50;6.87;;;6.17;;
9657;SDS011;4867;48.112;11.622;2023-05-07T05:11:17;6.80;;;6.17;;
9657;SDS011;4867;48.112;11.622;2023-05-07T05:13:45;6.73;;;6.10;;
9657;SDS011;4867;48.112;11.622;2023-05-07T05:16:17;6.53;;;5.93;;
9657;SDS011;4867;48.112;11.622;2023-05-07T05:18:45;5.67;;;5.27;;
9657;SDS011;4867;48.112;11.622;2023-05-07T05:21:15;5.53;;;5.03;;
9657;SDS011;4867;48.112;11.622;2023-05-07T05:23:44;5.67;;;5.17;;
9657;SDS011;4867;48.112;11.622;2023-05-07T05:26:13;5.57;;;4.83;;
9657;SDS011;4867;48.112;11.622;2023-05-07T05:28:41;5.90;;;5.30;;
9657;SDS011;4867;48.112;11.622;2023-05-07T05:31:08;5.83;;;5.20;;
9657;SDS011;4867;48.112;11.622;2023-05-07T05:33:36;6.13;;;5.13;;
9657;SDS011;4867;48.112;11.622;2023-05-07T05:36:04;5.73;;;5.10;;
9657;SDS011;4867;48.112;11.622;2023-05-07T05:38:33;5.77;;;5.27;;
9657;SDS011;4867;48.112;11.622;2023-05-07T05:41:00;6.33;;;5.10;;
9657;SDS011;4867;48.112;11.622;2023-05-07T05:43:29;5.73;;;4.70;;
9657;SDS011;4867;48.112;11.622;2023-05-07T05:45:57;5.60;;;5.10;;
9657;SDS011;4867;48.112;11.622;2023-05-07T05:48:25;5.17;;;4.70;;
9657;SDS011;4867;48.112;11.622;2023-05-07T05:50:52;4.80;;;4.40;;
9657;SDS011;4867;48.112;11.622;2023-05-07T05:53:20;5.43;;;4.40;;
9657;SDS011;4867;48.112;11.622;2023-05-07T05:55:47;6.90;;;4.23;;
9657;SDS011;4867;48.112;11.622;2023-05-07T05:58:15;5.57;;;4.90;;
9657;SDS011;4867;48.112;11.622;2023-05-07T06:00:50;4.83;;;4.43;;
9657;SDS011;4867;48.112;11.622;2023-05-07T06:03:22;5.13;;;4.40;;
9657;SDS011;4867;48.112;11.622;2023-05-07T06:05:50;6.40;;;4.67;;
9657;SDS011;4867;48.112;11.622;2023-05-07T06:08:20;4.83;;;4.40;;
9657;SDS011;4867;48.112;11.622;2023-05-07T06:10:47;5.80;;;5.17;;
9657;SDS011;4867;48.112;11.622;2023-05-07T06:13:15;4.93;;;4.53;;
9657;SDS011;4867;48.112;11.622;2023-05-07T06:15:43;5.37;;;4.87;;
9657;SDS011;4867;48.112;11.622;2023-05-07T06:18:12;5.10;;;4.60;;
9657;SDS011;4867;48.112;11.622;2023-05-07T06:20:40;7.13;;;5.10;;
9657;SDS011;4867;48.112;11.622;2023-05-07T06:23:13;4.87;;;4.37;;
9657;SDS011;4867;48.112;11.622;2023-05-07T06:25:50;5.30;;;4.80;;
9657;SDS011;4867;48.112;11.622;2023-05-07T06:28:21;4.50;;;4.10;;
9657;SDS011;4867;48.112;11.622;2023-05-07T06:30:48;4.93;;;4.10;;
9657;SDS011;4867;48.112;11.622;2023-05-07T06:33:17;5.60;;;4.30;;
9657;SDS011;4867;48.112;11.622;2023-05-07T06:35:46;4.87;;;4.13;;
9657;SDS011;4867;48.112;11.622;2023-05-07T06:38:13;5.53;;;4.30;;
9657;SDS011;4867;48.112;11.622;2023-05-07T06:40:43;4.70;;;3.83;;
9657;SDS011;4867;48.112;11.622;2023-05-07T06:43:15;4.37;;;3.97;;
9657;SDS011;4867;48.112;11.622;2023-05-07T06:46:01;3.80;;;3.50;;
9657;SDS011;4867;48.112;11.622;2023-05-07T06:48:29;4.37;;;3.97;;
9657;SDS011;4867;48.112;11.622;2023-05-07T06:51:01;5.17;;;3.97;;
9657;SDS011;4867;48.112;11.622;2023-05-07T06:53:30;3.73;;;3.33;;
9657;SDS011;4867;48.112;11.622;2023-05-07T06:55:59;4.23;;;3.57;;
9657;SDS011;4867;48.112;11.622;2023-05-07T06:58:26;4.37;;;3.97;;
9657;SDS011;4867;48.112;11.622;2023-05-07T07:00:54;3.87;;;3.57;;
9657;SDS011;4867;48.112;11.622;2023-05-07T07:03:22;4.57;;;3.77;;
9657;SDS011;4867;48.112;11.622;2023-05-07T07:05:53;4.50;;;4.10;;
9657;SDS011;4867;48.112;11.622;2023-05-07T07:08:22;3.83;;;3.20;;
9657;SDS011;4867;48.112;11.622;2023-05-07T07:10:50;3.90;;;3.50;;
9657;SDS011;4867;48.112;11.622;2023-05-07T07:13:17;4.07;;;3.47;;
9657;SDS011;4867;48.112;11.622;2023-05-07T07:15:46;4.13;;;3.50;;
9657;SDS011;4867;48.112;11.622;2023-05-07T07:18:13;3.77;;;3.47;;
9657;SDS011;4867;48.112;11.622;2023-05-07T07:20:41;4.40;;;3.53;;
9657;SDS011;4867;48.112;11.622;2023-05-07T07:23:08;4.60;;;3.70;;
9657;SDS011;4867;48.112;11.622;2023-05-07T07:25:35;4.87;;;3.50;;
9657;SDS011;4867;48.112;11.622;2023-05-07T07:28:03;5.17;;;3.70;;
9657;SDS011;4867;48.112;11.622;2023-05-07T07:30:30;5.10;;;4.20;;
9657;SDS011;4867;48.112;11.622;2023-05-07T07:32:58;5.03;;;3.60;;
9657;SDS011;4867;48.112;11.622;2023-05-07T07:35:33;3.50;;;3.20;;
9657;SDS011;4867;48.112;11.622;2023-05-07T07:38:00;4.33;;;3.30;;
9657;SDS011;4867;48.112;11.622;2023-05-07T07:40:29;3.40;;;3.10;;
9657;SDS011;4867;48.112;11.622;2023-05-07T07:42:57;4.60;;;3.70;;
9657;SDS011;4867;48.112;11.622;2023-05-07T07:45:24;3.83;;;3.47;;
9657;SDS011;4867;48.112;11.622;2023-05-07T07:47:51;3.80;;;3.10;;
9657;SDS011;4867;48.112;11.622;2023-05-07T07:50:19;3.97;;;3.10;;
9657;SDS011;4867;48.112;11.622;2023-05-07T07:53:07;3.60;;;3.30;;
9657;SDS011;4867;48.112;11.622;2023-05-07T07:55:38;4.30;;;3.30;;
9657;SDS011;4867;48.112;11.622;2023-05-07T07:58:07;4.83;;;3.50;;
9657;SDS011;4867;48.112;11.622;2023-05-07T08:00:34;5.10;;;3.60;;
9657;SDS011;4867;48.112;11.622;2023-05-07T08:03:01;4.33;;;3.47;;
9657;SDS011;4867;48.112;11.622;2023-05-07T08:05:34;3.63;;;3.30;;
9657;SDS011;4867;48.112;11.622;2023-05-07T08:08:04;3.97;;;3.57;;
9657;SDS011;4867;48.112;11.622;2023-05-07T08:10:32;4.50;;;4.10;;
9657;SDS011;4867;48.112;11.622;2023-05-07T08:13:07;3.43;;;3.13;;
9657;SDS011;4867;48.112;11.622;2023-05-07T08:15:36;3.43;;;3.13;;
9657;SDS011;4867;48.112;11.622;2023-05-07T08:18:04;3.30;;;3.00;;
9657;SDS011;4867;48.112;11.622;2023-05-07T08:20:33;4.53;;;3.80;;
9657;SDS011;4867;48.112;11.622;2023-05-07T08:23:03;4.90;;;3.80;;
9657;SDS011;4867;48.112;11.622;2023-05-07T08:25:32;4.33;;;3.70;;
9657;SDS011;4867;48.112;11.622;2023-05-07T08:28:01;4.60;;;3.50;;
9657;SDS011;4867;48.112;11.622;2023-05-07T08:30:28;5.57;;;3.90;;
9657;SDS011;4867;48.112;11.622;2023-05-07T08:32:56;4.83;;;3.70;;
9657;SDS011;4867;48.112;11.622;2023-05-07T08:35:23;5.80;;;3.90;;
9657;SDS011;4867;48.112;11.622;2023-05-07T08:37:53;4.60;;;3.70;;
9657;SDS011;4867;48.112;11.622;2023-05-07T08:40:25;4.17;;;3.73;;
9657;SDS011;4867;48.112;11.622;2023-05-07T08:42:55;4.30;;;3.90;;
9657;SDS011;4867;48.112;11.622;2023-05-07T08:45:24;4.47;;;3.77;;
9657;SDS011;4867;48.112;11.622;2023-05-07T08:47:55;4.40;;;4.00;;
9657;SDS011;4867;48.112;11.622;2023-05-07T08:50:30;5.20;;;4.30;;
9657;SDS011;4867;48.112;11.622;2023-05-07T08:52:59;4.00;;;3.60;;
9657;SDS011;4867;48.112;11.622;2023-05-07T08:55:28;4.27;;;3.87;;
9657;SDS011;4867;48.112;11.622;2023-05-07T08:57:56;4.50;;;3.50;;
9657;SDS011;4867;48.112;11.622;2023-05-07T09:00:24;4.13;;;3.33;;
9657;SDS011;4867;48.112;11.622;2023-05-07T09:02:54;3.70;;;3.40;;
9657;SDS011;4867;48.112;11.622;2023-05-07T09:05:21;4.20;;;3.67;;
9657;SDS011;4867;48.112;11.622;2023-05-07T09:07:49;3.20;;;2.90;;
9657;SDS011;4867;48.112;11.622;2023-05-07T09:10:21;3.53;;;3.23;;
9657;SDS011;4867;48.112;11.622;2023-05-07T09:12:48;4.13;;;3.37;;
9657;SDS011;4867;48.112;11.622;2023-05-07T09:15:17;3.37;;;2.93;;
9657;SDS011;4867;48.112;11.622;2023-05-07T09:17:45;3.40;;;3.07;;
9657;SDS011;4867;48.112;11.622;2023-05-07T09:20:13;4.13;;;2.80;;
9657;SDS011;4867;48.112;11.622;2023-05-07T09:22:40;3.20;;;2.77;;
9657;SDS011;4867;48.112;11.622;2023-05-07T09:25:11;4.30;;;2.90;;
9657;SDS011;4867;48.112;11.622;2023-05-07T09:27:41;4.53;;;2.80;;
9657;SDS011;4867;48.112;11.622;2023-05-07T09:30:11;3.80;;;2.90;;
9657;SDS011;4867;48.112;11.622;2023-05-07T09:32:39;4.07;;;2.87;;
9657;SDS011;4867;48.112;11.622;2023-05-07T09:35:20;3.80;;;2.87;;
9657;SDS011;4867;48.112;11.622;2023-05-07T09:37:56;4.63;;;2.93;;
9657;SDS011;4867;48.112;11.622;2023-05-07T09:40:29;3.30;;;2.50;;
9657;SDS011;4867;48.112;11.622;2023-05-07T09:43:11;3.40;;;2.50;;
9657;SDS011;4867;48.112;11.622;2023-05-07T09:45:46;4.23;;;2.47;;
9657;SDS011;4867;48.112;11.622;2023-05-07T09:48:22;4.40;;;2.63;;
9657;SDS011;4867;48.112;11.622;2023-05-07T09:50:55;2.50;;;2.30;;
9657;SDS011;4867;48.112;11.622;2023-05-07T09:53:30;2.93;;;2.60;;
9657;SDS011;4867;48.112;11.622;2023-05-07T09:56:00;2.97;;;2.77;;
9657;SDS011;4867;48.112;11.622;2023-05-07T09:58:31;3.40;;;3.10;;
9657;SDS011;4867;48.112;11.622;2023-05-07T10:01:00;2.60;;;2.40;;
9657;SDS011;4867;48.112;11.622;2023-05-07T10:03:29;3.60;;;2.80;;
9657;SDS011;4867;48.112;11.622;2023-05-07T10:06:04;3.03;;;2.73;;
9657;SDS011;4867;48.112;11.622;2023-05-07T10:08:33;2.83;;;2.13;;
9657;SDS011;4867;48.112;11.622;2023-05-07T10:11:03;3.17;;;2.43;;
9657;SDS011;4867;48.112;11.622;2023-05-07T10:13:35;3.83;;;2.60;;
9657;SDS011;4867;48.112;11.622;2023-05-07T10:16:06;3.08;;;2.40;;
9657;SDS011;4867;48.112;11.622;2023-05-07T10:18:40;3.08;;;2.50;;
9657;SDS011;4867;48.112;11.622;2023-05-07T10:21:16;3.65;;;2.83;;
9657;SDS011;4867;48.112;11.622;2023-05-07T10:23:49;4.30;;;2.60;;
9657;SDS011;4867;48.112;11.622;2023-05-07T10:26:19;4.17;;;2.47;;
9657;SDS011;4867;48.112;11.622;2023-05-07T10:28:50;2.90;;;2.40;;
9657;SDS011;4867;48.112;11.622;2023-05-07T10:34:16;2.83;;;2.20;;
9657;SDS011;4867;48.112;11.622;2023-05-07T10:36:49;2.60;;;2.23;;
9657;SDS011;4867;48.112;11.622;2023-05-07T10:39:19;2.57;;;2.30;;
9657;SDS011;4867;48.112;11.622;2023-05-07T10:41:48;3.83;;;2.67;;
9657;SDS011;4867;48.112;11.622;2023-05-07T10:44:27;2.93;;;2.10;;
9657;SDS011;4867;48.112;11.622;2023-05-07T10:47:10;3.03;;;2.33;;
9657;SDS011;4867;48.112;11.622;2023-05-07T10:52:22;2.47;;;2.27;;
9657;SDS011;4867;48.112;11.622;2023-05-07T10:55:19;2.85;;;2.55;;
9657;SDS011;4867;48.112;11.622;2023-05-07T11:01:48;3.50;;;2.77;;
9657;SDS011;4867;48.112;11.622;2023-05-07T11:04:43;4.78;;;3.15;;
9657;SDS011;4867;48.112;11.622;2023-05-07T11:07:26;4.10;;;3.73;;
9657;SDS011;4867;48.112;11.622;2023-05-07T11:10:01;4.32;;;3.50;;
9657;SDS011;4867;48.112;11.622;2023-05-07T11:12:47;3.22;;;2.92;;
9657;SDS011;4867;48.112;11.622;2023-05-07T11:15:39;3.70;;;2.90;;
9657;SDS011;4867;48.112;11.622;2023-05-07T11:18:18;3.60;;;2.50;;
9657;SDS011;4867;48.112;11.622;2023-05-07T11:20:49;4.07;;;3.63;;
9657;SDS011;4867;48.112;11.622;2023-05-07T11:26:12;4.43;;;3.93;;
9657;SDS011;4867;48.112;11.622;2023-05-07T11:28:40;4.07;;;3.60;;
9657;SDS011;4867;48.112;11.622;2023-05-07T11:31:10;4.50;;;4.10;;
9657;SDS011;4867;48.112;11.622;2023-05-07T11:33:39;4.67;;;4.27;;
9657;SDS011;4867;48.112;11.622;2023-05-07T11:36:12;5.32;;;4.82;;
9657;SDS011;4867;48.112;11.622;2023-05-07T11:38:45;5.63;;;4.25;;
9657;SDS011;4867;48.112;11.622;2023-05-07T11:41:12;4.65;;;4.22;;
9657;SDS011;4867;48.112;11.622;2023-05-07T11:43:53;5.53;;;4.97;;
9657;SDS011;4867;48.112;11.622;2023-05-07T11:46:24;6.30;;;3.58;;
9657;SDS011;4867;48.112;11.622;2023-05-07T11:48:52;4.70;;;4.30;;
9657;SDS011;4867;48.112;11.622;2023-05-07T11:51:20;5.03;;;4.53;;
9657;SDS011;4867;48.112;11.622;2023-05-07T11:53:48;5.20;;;4.78;;
9657;SDS011;4867;48.112;11.622;2023-05-07T11:56:17;4.82;;;4.45;;
9657;SDS011;4867;48.112;11.622;2023-05-07T11:58:45;5.53;;;4.93;;
9657;SDS011;4867;48.112;11.622;2023-05-07T12:01:14;4.65;;;4.25;;
9657;SDS011;4867;48.112;11.622;2023-05-07T12:03:43;8.95;;;8.05;;
9657;SDS011;4867;48.112;11.622;2023-05-07T12:06:14;5.10;;;4.70;;
9657;SDS011;4867;48.112;11.622;2023-05-07T12:08:43;5.88;;;5.28;;
9657;SDS011;4867;48.112;11.622;2023-05-07T12:11:21;7.90;;;7.15;;
9657;SDS011;4867;48.112;11.622;2023-05-07T12:13:49;5.70;;;5.18;;
9657;SDS011;4867;48.112;11.622;2023-05-07T12:16:17;4.75;;;4.30;;
9657;SDS011;4867;48.112;11.622;2023-05-07T12:18:45;5.60;;;4.80;;
9657;SDS011;4867;48.112;11.622;2023-05-07T12:21:13;5.32;;;4.30;;
9657;SDS011;4867;48.112;11.622;2023-05-07T12:23:41;6.03;;;5.47;;
9657;SDS011;4867;48.112;11.622;2023-05-07T12:26:08;4.93;;;4.43;;
9657;SDS011;4867;48.112;11.622;2023-05-07T12:28:37;5.82;;;5.32;;
9657;SDS011;4867;48.112;11.622;2023-05-07T12:31:07;5.50;;;5.00;;
9657;SDS011;4867;48.112;11.622;2023-05-07T12:33:35;4.93;;;4.47;;
9657;SDS011;4867;48.112;11.622;2023-05-07T12:36:03;4.43;;;4.05;;
9657;SDS011;4867;48.112;11.622;2023-05-07T12:38:34;3.88;;;3.53;;
9657;SDS011;4867;48.112;11.622;2023-05-07T12:41:06;4.65;;;3.83;;
9657;SDS011;4867;48.112;11.622;2023-05-07T12:43:34;3.70;;;3.40;;
9657;SDS011;4867;48.112;11.622;2023-05-07T12:46:05;4.97;;;3.95;;
9657;SDS011;4867;48.112;11.622;2023-05-07T12:48:35;5.15;;;3.50;;
9657;SDS011;4867;48.112;11.622;2023-05-07T12:51:04;4.30;;;3.78;;
9657;SDS011;4867;48.112;11.622;2023-05-07T12:53:32;3.97;;;3.30;;
9657;SDS011;4867;48.112;11.622;2023-05-07T12:56:00;3.80;;;3.50;;
9657;SDS011;4867;48.112;11.622;2023-05-07T12:58:31;3.55;;;3.25;;
9657;SDS011;4867;48.112;11.622;2023-05-07T13:01:01;3.58;;;3.28;;
9657;SDS011;4867;48.112;11.622;2023-05-07T13:03:33;3.95;;;3.28;;
9657;SDS011;4867;48.112;11.622;2023-05-07T13:06:04;5.57;;;3.38;;
9657;SDS011;4867;48.112;11.622;2023-05-07T13:08:35;5.18;;;3.00;;
9657;SDS011;4867;48.112;11.622;2023-05-07T13:11:04;3.25;;;2.95;;
9657;SDS011;4867;48.112;11.622;2023-05-07T13:13:32;3.70;;;2.90;;
9657;SDS011;4867;48.112;11.622;2023-05-07T13:16:00;3.50;;;2.78;;
9657;SDS011;4867;48.112;11.622;2023-05-07T13:18:29;3.80;;;3.08;;
9657;SDS011;4867;48.112;11.622;2023-05-07T13:20:57;4.07;;;2.97;;
9657;SDS011;4867;48.112;11.622;2023-05-07T13:23:25;3.47;;;3.10;;
9657;SDS011;4867;48.112;11.622;2023-05-07T13:25:53;3.55;;;2.50;;
9657;SDS011;4867;48.112;11.622;2023-05-07T13:28:21;3.65;;;2.90;;
9657;SDS011;4867;48.112;11.622;2023-05-07T13:30:49;4.40;;;4.00;;
9657;SDS011;4867;48.112;11.622;2023-05-07T13:33:18;3.20;;;2.90;;
9657;SDS011;4867;48.112;11.622;2023-05-07T13:35:45;3.40;;;3.10;;
9657;SDS011;4867;48.112;11.622;2023-05-07T13:38:12;3.13;;;2.83;;
9657;SDS011;4867;48.112;11.622;2023-05-07T13:40:42;3.05;;;2.80;;
9657;SDS011;4867;48.112;11.622;2023-05-07T13:43:09;2.80;;;2.60;;
9657;SDS011;4867;48.112;11.622;2023-05-07T13:45:37;2.75;;;2.55;;
9657;SDS011;4867;48.112;11.622;2023-05-07T13:48:04;2.80;;;2.60;;
9657;SDS011;4867;48.112;11.622;2023-05-07T13:50:32;3.65;;;2.70;;
9657;SDS011;4867;48.112;11.622;2023-05-07T13:52:59;4.93;;;3.38;;
9657;SDS011;4867;48.112;11.622;2023-05-07T13:55:27;4.15;;;3.75;;
9657;SDS011;4867;48.112;11.622;2023-05-07T13:57:56;3.25;;;2.80;;
9657;SDS011;4867;48.112;11.622;2023-05-07T14:00:25;4.93;;;3.40;;
9657;SDS011;4867;48.112;11.622;2023-05-07T14:02:53;5.07;;;2.83;;
9657;SDS011;4867;48.112;11.622;2023-05-07T14:05:21;3.20;;;2.85;;
9657;SDS011;4867;48.112;11.622;2023-05-07T14:07:53;3.97;;;2.85;;
9657;SDS011;4867;48.112;11.622;2023-05-07T14:10:21;3.00;;;2.80;;
9657;SDS011;4867;48.112;11.622;2023-05-07T14:12:49;2.85;;;2.65;;
9657;SDS011;4867;48.112;11.622;2023-05-07T14:15:16;2.92;;;2.72;;
9657;SDS011;4867;48.112;11.622;2023-05-07T14:17:43;3.55;;;2.80;;
9657;SDS011;4867;48.112;11.622;2023-05-07T14:20:12;3.78;;;3.05;;
9657;SDS011;4867;48.112;11.622;2023-05-07T14:22:40;6.28;;;3.30;;
9657;SDS011;4867;48.112;11.622;2023-05-07T14:25:07;4.40;;;3.05;;
9657;SDS011;4867;48.112;11.622;2023-05-07T14:27:36;3.35;;;3.08;;
9657;SDS011;4867;48.112;11.622;2023-05-07T14:30:04;3.70;;;3.30;;
9657;SDS011;4867;48.112;11.622;2023-05-07T14:32:32;4.65;;;3.55;;
9657;SDS011;4867;48.112;11.622;2023-05-07T14:35:00;4.57;;;4.05;;
9657;SDS011;4867;48.112;11.622;2023-05-07T14:37:27;3.47;;;3.22;;
9657;SDS011;4867;48.112;11.622;2023-05-07T14:39:54;3.65;;;2.92;;
9657;SDS011;4867;48.112;11.622;2023-05-07T14:42:22;4.20;;;3.47;;
9657;SDS011;4867;48.112;11.622;2023-05-07T14:44:49;3.50;;;3.20;;
9657;SDS011;4867;48.112;11.622;2023-05-07T14:47:16;4.70;;;4.07;;
9657;SDS011;4867;48.112;11.622;2023-05-07T14:49:45;4.30;;;3.90;;
9657;SDS011;4867;48.112;11.622;2023-05-07T14:52:13;4.97;;;4.25;;
9657;SDS011;4867;48.112;11.622;2023-05-07T14:54:40;4.28;;;3.88;;
9657;SDS011;4867;48.112;11.622;2023-05-07T14:57:07;4.72;;;3.35;;
9657;SDS011;4867;48.112;11.622;2023-05-07T14:59:37;5.72;;;3.70;;
9657;SDS011;4867;48.112;11.622;2023-05-07T15:02:05;3.80;;;3.35;;
9657;SDS011;4867;48.112;11.622;2023-05-07T15:04:36;3.75;;;3.45;;
9657;SDS011;4867;48.112;11.622;2023-05-07T15:07:04;4.32;;;3.97;;
9657;SDS011;4867;48.112;11.622;2023-05-07T15:09:31;4.10;;;3.70;;
9657;SDS011;4867;48.112;11.622;2023-05-07T15:11:59;5.55;;;3.40;;
9657;SDS011;4867;48.112;11.622;2023-05-07T15:14:26;3.35;;;3.10;;
9657;SDS011;4867;48.112;11.622;2023-05-07T15:16:53;3.45;;;3.13;;
9657;SDS011;4867;48.112;11.622;2023-05-07T15:19:21;3.55;;;3.25;;
9657;SDS011;4867;48.112;11.622;2023-05-07T15:21:49;3.50;;;3.20;;
9657;SDS011;4867;48.112;11.622;2023-05-07T15:24:16;4.05;;;3.75;;
9657;SDS011;4867;48.112;11.622;2023-05-07T15:26:43;4.10;;;3.70;;
9657;SDS011;4867;48.112;11.622;2023-05-07T15:29:10;3.88;;;3.58;;